createdAt,value
2023-01-29T00:01:48.638Z,0.64
2023-01-29T00:04:50.407Z,0.60
2023-01-29T00:07:52.076Z,0.52
2023-01-29T00:10:53.671Z,0.43
2023-01-29T00:13:56.101Z,0.36
2023-01-29T00:16:57.774Z,0.29
2023-01-29T00:19:59.676Z,0.25
2023-01-29T00:23:01.394Z,0.20
2023-01-29T00:26:03.135Z,0.18
2023-01-29T00:29:05.529Z,0.16
2023-01-29T00:32:07.283Z,0.16
2023-01-29T00:35:11.000Z,0.22
2023-01-29T00:38:12.660Z,0.29
2023-01-29T00:41:34.696Z,0.37
2023-01-29T00:44:54.683Z,0.41
2023-01-29T00:47:56.449Z,0.48
2023-01-29T00:50:58.208Z,0.56
2023-01-29T00:54:00.512Z,0.62
2023-01-29T00:57:03.047Z,0.66
2023-01-29T01:00:06.488Z,0.69
2023-01-29T01:03:08.270Z,0.70
2023-01-29T01:06:11.154Z,0.68
2023-01-29T01:09:31.720Z,0.66
2023-01-29T01:12:33.335Z,0.66
2023-01-29T01:15:39.039Z,0.66
2023-01-29T01:18:41.210Z,0.66
2023-01-29T01:21:48.355Z,0.65
2023-01-29T01:24:50.470Z,0.66
2023-01-29T01:27:56.433Z,0.63
2023-01-29T01:30:58.092Z,0.59
2023-01-29T01:33:59.949Z,0.56
2023-01-29T01:37:01.607Z,0.54
2023-01-29T01:40:05.925Z,0.54
2023-01-29T01:43:09.840Z,0.53
2023-01-29T01:46:11.515Z,0.49
2023-01-29T01:49:18.788Z,0.44
2023-01-29T01:52:23.010Z,0.34
2023-01-29T01:55:26.921Z,0.22
2023-01-29T01:58:34.247Z,0.10
2023-01-29T02:01:38.435Z,-0.00
2023-01-29T02:05:05.435Z,-0.09
2023-01-29T02:08:26.058Z,-0.19
2023-01-29T02:11:27.683Z,-0.24
2023-01-29T02:14:29.507Z,-0.24
2023-01-29T02:17:32.070Z,-0.20
2023-01-29T02:20:33.959Z,-0.13
2023-01-29T02:23:54.617Z,-0.01
2023-01-29T02:27:05.594Z,0.09
2023-01-29T02:30:34.107Z,0.15
2023-01-29T02:33:53.916Z,0.21
2023-01-29T02:37:09.708Z,0.24
2023-01-29T02:40:34.068Z,0.24
2023-01-29T02:43:38.791Z,0.26
2023-01-29T02:47:00.528Z,0.30
2023-01-29T02:50:14.588Z,0.31
2023-01-29T02:53:28.060Z,0.29
2023-01-29T02:56:48.828Z,0.28
2023-01-29T03:00:00.037Z,0.29
2023-01-29T03:03:11.524Z,0.31
2023-01-29T03:06:20.556Z,0.32
2023-01-29T03:09:32.853Z,0.34
2023-01-29T03:12:35.573Z,0.38
2023-01-29T03:15:43.277Z,0.39
2023-01-29T03:19:01.831Z,0.40
2023-01-29T03:22:04.871Z,0.43
2023-01-29T03:25:27.347Z,0.46
2023-01-29T03:28:49.494Z,0.48
2023-01-29T03:32:08.289Z,0.52
2023-01-29T03:35:14.639Z,0.54
2023-01-29T03:38:17.324Z,0.57
2023-01-29T03:41:47.731Z,0.60
2023-01-29T03:45:12.742Z,0.64
2023-01-29T03:48:16.038Z,0.67
2023-01-29T03:51:39.482Z,0.68
2023-01-29T03:54:58.065Z,0.70
2023-01-29T03:58:21.745Z,0.76
2023-01-29T04:01:49.894Z,0.82
2023-01-29T04:04:54.257Z,0.89
2023-01-29T04:07:57.862Z,0.95
2023-01-29T04:11:03.276Z,0.99
2023-01-29T04:14:07.516Z,1.05
2023-01-29T04:17:34.783Z,1.08
2023-01-29T04:20:46.246Z,1.15
2023-01-29T04:23:47.948Z,1.18
2023-01-29T04:27:22.089Z,1.19
2023-01-29T04:30:27.295Z,1.24
2023-01-29T04:33:40.556Z,1.29
2023-01-29T04:36:52.888Z,1.33
2023-01-29T04:40:07.095Z,1.35
2023-01-29T04:43:36.296Z,1.36
2023-01-29T04:47:23.524Z,1.35
2023-01-29T04:50:34.046Z,1.33
2023-01-29T04:53:57.865Z,1.32
2023-01-29T04:57:25.650Z,1.31
2023-01-29T05:00:32.412Z,1.30
2023-01-29T05:03:34.626Z,1.24
2023-01-29T05:06:37.636Z,1.15
2023-01-29T05:09:39.751Z,1.13
2023-01-29T05:12:44.382Z,1.12
2023-01-29T05:16:01.135Z,1.12
2023-01-29T05:19:02.956Z,1.16
2023-01-29T05:22:05.581Z,1.19
2023-01-29T05:25:21.429Z,1.19
2023-01-29T05:28:23.499Z,1.21
2023-01-29T05:31:25.233Z,1.25
2023-01-29T05:34:27.230Z,1.29
2023-01-29T05:37:28.880Z,1.34
2023-01-29T05:40:30.567Z,1.37
2023-01-29T05:43:32.151Z,1.40
2023-01-29T05:46:33.939Z,1.41
2023-01-29T05:49:37.279Z,1.42
2023-01-29T05:52:40.895Z,1.42
2023-01-29T05:55:48.617Z,1.44
2023-01-29T05:58:50.254Z,1.45
2023-01-29T06:01:52.010Z,1.46
2023-01-29T06:04:53.766Z,1.46
2023-01-29T06:07:55.518Z,1.43
2023-01-29T06:10:57.280Z,1.42
2023-01-29T06:13:58.876Z,1.38
2023-01-29T06:17:00.598Z,1.34
2023-01-29T06:20:02.642Z,1.31
2023-01-29T06:23:04.332Z,1.30
2023-01-29T06:26:10.391Z,1.32
2023-01-29T06:29:12.016Z,1.37
2023-01-29T06:32:13.777Z,1.40
2023-01-29T06:35:15.675Z,1.43
2023-01-29T06:38:17.336Z,1.43
2023-01-29T06:41:22.768Z,1.43
2023-01-29T06:44:24.402Z,1.42
2023-01-29T06:47:27.838Z,1.39
2023-01-29T06:50:29.502Z,1.35
2023-01-29T06:53:31.338Z,1.29
2023-01-29T06:56:32.985Z,1.22
2023-01-29T06:59:34.661Z,1.15
2023-01-29T07:02:36.348Z,1.08
2023-01-29T07:05:38.247Z,1.03
2023-01-29T07:08:40.573Z,0.99
2023-01-29T07:11:42.254Z,0.99
2023-01-29T07:14:43.907Z,1.02
2023-01-29T07:17:56.365Z,1.07
2023-01-29T07:20:58.296Z,1.13
2023-01-29T07:24:00.056Z,1.16
2023-01-29T07:27:01.830Z,1.17
2023-01-29T07:30:03.750Z,1.20
2023-01-29T07:33:08.281Z,1.23
2023-01-29T07:36:10.902Z,1.24
2023-01-29T07:39:12.595Z,1.24
2023-01-29T07:42:14.164Z,1.24
2023-01-29T07:45:15.747Z,1.23
2023-01-29T07:48:17.696Z,1.21
2023-01-29T07:51:21.545Z,1.20
2023-01-29T07:54:23.123Z,1.20
2023-01-29T07:57:25.470Z,1.20
2023-01-29T08:00:27.642Z,1.24
2023-01-29T08:03:29.302Z,1.33
2023-01-29T08:06:31.068Z,1.44
2023-01-29T08:09:32.721Z,1.55
2023-01-29T08:12:34.467Z,1.65
2023-01-29T08:15:38.796Z,1.76
2023-01-29T08:18:44.193Z,1.86
2023-01-29T08:21:45.727Z,1.97
2023-01-29T08:24:53.855Z,2.07
2023-01-29T08:28:02.224Z,2.20
2023-01-29T08:31:04.158Z,2.30
2023-01-29T08:34:05.909Z,2.40
2023-01-29T08:37:07.546Z,2.50
2023-01-29T08:40:10.974Z,2.62
2023-01-29T08:43:13.916Z,2.73
2023-01-29T08:46:15.643Z,2.84
2023-01-29T08:49:17.315Z,2.95
2023-01-29T08:52:23.346Z,3.06
2023-01-29T08:55:25.885Z,3.17
2023-01-29T08:58:27.491Z,3.28
2023-01-29T09:01:29.235Z,3.40
2023-01-29T09:04:30.938Z,3.51
2023-01-29T09:07:33.287Z,3.65
2023-01-29T09:10:35.487Z,3.81
2023-01-29T09:13:37.187Z,3.98
2023-01-29T09:16:38.928Z,4.13
2023-01-29T09:19:40.644Z,4.30
2023-01-29T09:22:42.450Z,4.45
2023-01-29T09:25:44.325Z,4.60
2023-01-29T09:28:46.085Z,4.75
2023-01-29T09:31:47.786Z,4.91
2023-01-29T09:34:49.495Z,5.06
2023-01-29T09:37:52.011Z,5.23
2023-01-29T09:40:55.830Z,5.39
2023-01-29T09:44:02.904Z,5.54
2023-01-29T09:47:06.132Z,5.68
2023-01-29T09:50:20.249Z,5.81
2023-01-29T09:53:29.564Z,5.94
2023-01-29T09:56:31.576Z,6.03
2023-01-29T09:59:33.301Z,6.15
2023-01-29T10:02:59.583Z,6.27
2023-01-29T10:06:25.603Z,6.39
2023-01-29T10:09:37.902Z,6.47
2023-01-29T10:13:00.864Z,6.54
2023-01-29T10:16:18.909Z,6.62
2023-01-29T10:19:35.009Z,6.71
2023-01-29T10:22:58.279Z,6.82
2023-01-29T10:26:00.371Z,6.92
2023-01-29T10:29:02.927Z,7.01
2023-01-29T10:32:06.114Z,7.05
2023-01-29T10:35:21.669Z,7.10
2023-01-29T10:38:35.177Z,7.15
2023-01-29T10:41:45.954Z,7.22
2023-01-29T10:44:50.301Z,7.29
2023-01-29T10:48:04.362Z,7.30
2023-01-29T10:51:34.963Z,7.35
2023-01-29T10:55:04.612Z,7.40
2023-01-29T10:58:34.307Z,7.45
2023-01-29T11:01:35.869Z,7.49
2023-01-29T11:04:37.869Z,7.55
2023-01-29T11:07:39.581Z,7.65
2023-01-29T11:11:05.705Z,7.75
2023-01-29T11:14:12.564Z,7.83
2023-01-29T11:17:20.041Z,7.89
2023-01-29T11:20:31.692Z,7.97
2023-01-29T11:23:34.109Z,8.01
2023-01-29T11:26:38.397Z,8.07
2023-01-29T11:29:45.813Z,8.15
2023-01-29T11:32:51.858Z,8.25
2023-01-29T11:35:53.504Z,8.30
2023-01-29T11:39:12.425Z,8.38
2023-01-29T11:42:22.260Z,8.40
2023-01-29T11:45:32.464Z,8.37
2023-01-29T11:48:43.446Z,8.42
2023-01-29T11:51:51.900Z,8.51
2023-01-29T11:54:58.688Z,8.56
2023-01-29T11:58:13.692Z,8.57
2023-01-29T12:01:17.548Z,8.61
2023-01-29T12:04:22.636Z,8.66
2023-01-29T12:07:24.441Z,8.73
2023-01-29T12:10:39.589Z,8.75
2023-01-29T12:13:43.502Z,8.77
2023-01-29T12:16:45.120Z,8.82
2023-01-29T12:19:51.497Z,8.93
2023-01-29T12:23:16.006Z,9.03
2023-01-29T12:26:47.022Z,9.04
2023-01-29T12:30:12.441Z,9.11
2023-01-29T12:33:32.900Z,9.18
2023-01-29T12:36:42.958Z,9.23
2023-01-29T12:39:44.765Z,9.24
2023-01-29T12:42:50.632Z,9.29
2023-01-29T12:45:54.456Z,9.37
2023-01-29T12:48:59.157Z,9.42
2023-01-29T12:52:07.053Z,9.36
2023-01-29T12:55:18.580Z,9.37
2023-01-29T12:58:43.375Z,9.35
2023-01-29T13:01:50.737Z,9.35
2023-01-29T13:05:23.767Z,9.30
2023-01-29T13:08:32.856Z,9.24
2023-01-29T13:11:38.559Z,9.18
2023-01-29T13:15:00.514Z,9.13
2023-01-29T13:18:17.563Z,9.10
2023-01-29T13:21:25.882Z,9.09
2023-01-29T13:24:40.392Z,9.19
2023-01-29T13:27:43.356Z,9.27
2023-01-29T13:30:45.087Z,9.40
2023-01-29T13:34:33.308Z,9.55
2023-01-29T13:37:37.753Z,9.60
2023-01-29T13:40:39.703Z,9.52
2023-01-29T13:43:42.944Z,9.53
2023-01-29T13:46:55.714Z,9.58
2023-01-29T13:50:07.583Z,9.63
2023-01-29T13:53:20.411Z,9.64
2023-01-29T13:56:31.247Z,9.63
2023-01-29T13:59:51.423Z,9.67
2023-01-29T14:02:56.235Z,9.73
2023-01-29T14:06:00.132Z,9.76
2023-01-29T14:09:01.844Z,9.70
2023-01-29T14:12:39.515Z,9.64
2023-01-29T14:15:41.364Z,9.61
2023-01-29T14:18:55.685Z,9.66
2023-01-29T14:21:58.332Z,9.69
2023-01-29T14:25:02.985Z,9.72
2023-01-29T14:28:14.387Z,9.67
2023-01-29T14:31:31.797Z,9.65
2023-01-29T14:34:43.125Z,9.60
2023-01-29T14:37:47.744Z,9.62
2023-01-29T14:40:49.467Z,9.64
2023-01-29T14:43:51.171Z,9.64
2023-01-29T14:46:53.225Z,9.63
2023-01-29T14:49:55.877Z,9.62
2023-01-29T14:53:09.993Z,9.61
2023-01-29T14:56:25.133Z,9.61
2023-01-29T14:59:34.269Z,9.59
2023-01-29T15:02:41.386Z,9.58
2023-01-29T15:05:43.499Z,9.54
2023-01-29T15:08:55.993Z,9.42
2023-01-29T15:12:08.506Z,9.39
2023-01-29T15:15:21.596Z,9.40
2023-01-29T15:18:40.033Z,9.43
2023-01-29T15:22:02.125Z,9.44
2023-01-29T15:25:07.472Z,9.43
2023-01-29T15:28:10.626Z,9.41
2023-01-29T15:31:14.163Z,9.38
2023-01-29T15:34:15.874Z,9.31
2023-01-29T15:37:32.421Z,9.23
2023-01-29T15:40:34.852Z,9.16
2023-01-29T15:43:37.701Z,9.08
2023-01-29T15:46:40.986Z,9.02
2023-01-29T15:49:42.770Z,8.92
2023-01-29T15:52:49.801Z,8.79
2023-01-29T15:55:52.026Z,8.72
2023-01-29T15:58:54.329Z,8.65
2023-01-29T16:01:56.528Z,8.53
2023-01-29T16:04:58.456Z,8.41
2023-01-29T16:08:01.105Z,8.28
2023-01-29T16:11:05.529Z,8.18
2023-01-29T16:14:07.888Z,8.08
2023-01-29T16:17:23.144Z,7.98
2023-01-29T16:20:51.638Z,7.89
2023-01-29T16:23:56.144Z,7.77
2023-01-29T16:26:59.901Z,7.67
2023-01-29T16:30:02.278Z,7.63
2023-01-29T16:33:05.025Z,7.56
2023-01-29T16:36:17.489Z,7.45
2023-01-29T16:39:23.108Z,7.34
2023-01-29T16:42:29.612Z,7.24
2023-01-29T16:45:31.377Z,7.12
2023-01-29T16:48:34.835Z,7.01
2023-01-29T16:51:39.607Z,6.94
2023-01-29T16:54:44.520Z,6.79
2023-01-29T16:57:51.421Z,6.60
2023-01-29T17:00:56.755Z,6.41
2023-01-29T17:04:08.525Z,6.26
2023-01-29T17:07:17.094Z,6.11
2023-01-29T17:10:20.710Z,5.99
2023-01-29T17:13:39.259Z,5.88
2023-01-29T17:16:51.051Z,5.73
2023-01-29T17:19:52.711Z,5.57
2023-01-29T17:22:54.353Z,5.41
2023-01-29T17:25:56.130Z,5.25
2023-01-29T17:28:57.764Z,5.09
2023-01-29T17:32:02.093Z,4.95
2023-01-29T17:35:06.582Z,4.84
2023-01-29T17:38:25.557Z,4.75
2023-01-29T17:41:28.831Z,4.65
2023-01-29T17:44:30.535Z,4.56
2023-01-29T17:47:32.431Z,4.45
2023-01-29T17:50:35.526Z,4.31
2023-01-29T17:53:45.166Z,4.17
2023-01-29T17:56:48.404Z,4.04
2023-01-29T17:59:50.231Z,3.94
2023-01-29T18:02:52.195Z,3.86
2023-01-29T18:05:53.787Z,3.81
2023-01-29T18:08:56.682Z,3.76
2023-01-29T18:11:58.374Z,3.72
2023-01-29T18:15:00.174Z,3.68
2023-01-29T18:18:02.514Z,3.63
2023-01-29T18:21:04.436Z,3.57
2023-01-29T18:24:06.359Z,3.55
2023-01-29T18:27:08.846Z,3.51
2023-01-29T18:30:12.046Z,3.48
2023-01-29T18:33:14.321Z,3.45
2023-01-29T18:36:15.993Z,3.43
2023-01-29T18:39:17.735Z,3.40
2023-01-29T18:42:19.381Z,3.36
2023-01-29T18:45:21.171Z,3.30
2023-01-29T18:48:22.777Z,3.25
2023-01-29T18:51:24.593Z,3.23
2023-01-29T18:54:27.171Z,3.21
2023-01-29T18:58:26.032Z,3.19
2023-01-29T19:00:50.894Z,3.19
2023-01-29T19:03:52.661Z,3.18
2023-01-29T19:06:54.332Z,3.18
2023-01-29T19:09:56.177Z,3.17
2023-01-29T19:12:57.921Z,3.19
2023-01-29T19:15:59.698Z,3.17
2023-01-29T19:19:01.375Z,3.16
2023-01-29T19:22:03.724Z,3.14
2023-01-29T19:25:06.226Z,3.10
2023-01-29T19:28:08.018Z,3.07
2023-01-29T19:31:09.790Z,3.05
2023-01-29T19:34:11.652Z,3.00
2023-01-29T19:37:13.459Z,2.95
2023-01-29T19:40:15.212Z,2.91
2023-01-29T19:43:20.363Z,2.86
2023-01-29T19:46:22.245Z,2.79
2023-01-29T19:49:23.983Z,2.76
2023-01-29T19:52:51.281Z,2.72
2023-01-29T19:56:20.063Z,2.70
2023-01-29T19:59:22.222Z,2.67
2023-01-29T20:02:25.065Z,2.62
2023-01-29T20:05:27.148Z,2.59
2023-01-29T20:08:28.928Z,2.54
2023-01-29T20:11:31.186Z,2.49
2023-01-29T20:14:32.869Z,2.45
2023-01-29T20:17:34.586Z,2.42
2023-01-29T20:20:39.747Z,2.38
2023-01-29T20:23:41.538Z,2.35
2023-01-29T20:26:43.241Z,2.31
2023-01-29T20:29:46.642Z,2.26
2023-01-29T20:32:48.300Z,2.19
2023-01-29T20:36:01.651Z,2.10
2023-01-29T20:39:03.570Z,1.99
2023-01-29T20:42:05.268Z,1.89
2023-01-29T20:45:07.401Z,1.82
2023-01-29T20:48:09.130Z,1.78
2023-01-29T20:51:16.167Z,1.79
2023-01-29T20:54:17.868Z,1.80
2023-01-29T20:57:19.544Z,1.79
2023-01-29T21:00:21.625Z,1.79
2023-01-29T21:03:23.277Z,1.78
2023-01-29T21:06:25.575Z,1.75
2023-01-29T21:09:28.761Z,1.70
2023-01-29T21:12:30.512Z,1.67
2023-01-29T21:15:32.204Z,1.66
2023-01-29T21:18:33.916Z,1.62
2023-01-29T21:21:35.630Z,1.59
2023-01-29T21:24:37.286Z,1.54
2023-01-29T21:27:39.008Z,1.40
2023-01-29T21:30:40.753Z,1.29
2023-01-29T21:33:43.070Z,1.18
2023-01-29T21:36:46.900Z,1.15
2023-01-29T21:39:48.635Z,1.16
2023-01-29T21:43:08.824Z,1.18
2023-01-29T21:46:13.402Z,1.24
2023-01-29T21:49:15.073Z,1.28
2023-01-29T21:52:16.760Z,1.29
2023-01-29T21:55:18.409Z,1.26
2023-01-29T21:58:20.853Z,1.22
2023-01-29T22:01:36.575Z,1.17
2023-01-29T22:04:40.256Z,1.10
2023-01-29T22:07:42.593Z,1.03
2023-01-29T22:10:44.351Z,0.97
2023-01-29T22:13:46.490Z,0.88
2023-01-29T22:16:48.246Z,0.79
2023-01-29T22:19:50.142Z,0.71
2023-01-29T22:22:51.798Z,0.66
2023-01-29T22:25:53.862Z,0.63
2023-01-29T22:28:55.626Z,0.56
2023-01-29T22:31:57.419Z,0.50
2023-01-29T22:34:59.155Z,0.47
2023-01-29T22:38:00.911Z,0.46
2023-01-29T22:41:02.516Z,0.47
2023-01-29T22:44:04.310Z,0.47
2023-01-29T22:47:05.991Z,0.42
2023-01-29T22:50:08.343Z,0.33
2023-01-29T22:53:10.052Z,0.27
2023-01-29T22:56:12.109Z,0.23
2023-01-29T22:59:13.859Z,0.18
2023-01-29T23:02:15.725Z,0.14
2023-01-29T23:05:18.075Z,0.13
2023-01-29T23:08:22.498Z,0.17
2023-01-29T23:11:24.386Z,0.20
2023-01-29T23:14:26.070Z,0.20
2023-01-29T23:17:27.679Z,0.14
2023-01-29T23:20:29.255Z,0.16
2023-01-29T23:23:32.463Z,0.18
2023-01-29T23:26:53.110Z,0.16
2023-01-29T23:29:54.751Z,0.11
2023-01-29T23:32:56.366Z,0.05
2023-01-29T23:35:58.035Z,-0.04
2023-01-29T23:38:59.725Z,-0.13
2023-01-29T23:42:01.619Z,-0.18
2023-01-29T23:45:03.454Z,-0.22
2023-01-29T23:48:05.397Z,-0.22
2023-01-29T23:51:07.058Z,-0.22
2023-01-29T23:54:08.833Z,-0.19
2023-01-29T23:57:10.551Z,-0.16
